Dades meteomassalio
Diari Summary for Octubre 17, 2017 Units:  Metric    English   Both
« Previous Day
Next Day »
Diari Semanal Mensual Anual Personalitzat
  Maxima: Minima: Mijana:
Temperatura: 25.6 °C 4.4 °C 14.3 °C
Rosada: 14.6 °C 3.1 °C 8.8 °C
Humitat: 91 % 45 % 72 %
Velocitat del vent: 33.3 km/h 0.0 km/h 6.9 km/h
Racha vent: 33.3 km/h - -
Vent:- - ESE
Pressio: 1027.0 hPa 1019.9 hPa -
Pluja: 0.5 mm    
Historical Graphs
 
 
Tabular Data for Octubre 17, 2017
Time Temperature Dew Point Pressure Wind Wind Speed Wind Gust Humidity Rainfall Rate (Hourly) solar Conditions
00:03 10.0 °C 6.5 °C 1026.6 hPa Calm     79 % 0.0 mm 0.0 W/m2 CLR
00:08 10.0 °C 6.3 °C 1026.6 hPa Calm     78 % 0.0 mm 0.0 W/m2 CLR
00:13 9.4 °C 6.0 °C 1026.6 hPa Calm     79 % 0.0 mm 0.0 W/m2 CLR
00:18 9.4 °C 6.0 °C 1026.6 hPa Calm     79 % 0.0 mm 0.0 W/m2 CLR
00:23 8.9 °C 5.6 °C 1026.6 hPa Calm     80 % 0.0 mm 0.0 W/m2 CLR
00:28 8.9 °C 5.8 °C 1026.6 hPa Calm     81 % 0.0 mm 0.0 W/m2 CLR
00:33 8.9 °C 5.8 °C 1026.6 hPa Calm     81 % 0.0 mm 0.0 W/m2 CLR
00:38 8.9 °C 5.6 °C 1027.0 hPa Calm     80 % 0.0 mm 0.0 W/m2 CLR
00:43 8.9 °C 5.8 °C 1026.6 hPa Calm     81 % 0.0 mm 0.0 W/m2 CLR
00:48 8.9 °C 5.8 °C 1026.6 hPa Calm     81 % 0.0 mm 0.0 W/m2 CLR
00:53 8.3 °C 5.4 °C 1026.6 hPa Calm     82 % 0.0 mm 0.0 W/m2 CLR
00:58 8.9 °C 6.2 °C 1026.6 hPa Calm     83 % 0.0 mm 0.0 W/m2 CLR
01:03 8.3 °C 5.6 °C 1026.6 hPa Calm     83 % 0.0 mm 0.0 W/m2 CLR
01:08 8.3 °C 5.6 °C 1026.6 hPa Calm     83 % 0.0 mm 0.0 W/m2 CLR
01:13 8.3 °C 5.8 °C 1026.6 hPa Calm     84 % 0.0 mm 0.0 W/m2 CLR
01:18 8.9 °C 6.3 °C 1026.6 hPa Calm     84 % 0.0 mm 0.0 W/m2 CLR
01:23 8.3 °C 5.8 °C 1026.6 hPa Calm     84 % 0.0 mm 0.0 W/m2 CLR
01:28 8.3 °C 5.8 °C 1026.6 hPa Calm     84 % 0.0 mm 0.0 W/m2 CLR
01:33 8.3 °C 5.8 °C 1026.6 hPa Calm     84 % 0.0 mm 0.0 W/m2 CLR
01:38 7.8 °C 5.2 °C 1026.6 hPa Calm     84 % 0.0 mm 0.0 W/m2 CLR
01:43 8.3 °C 5.8 °C 1026.6 hPa Calm     84 % 0.0 mm 0.0 W/m2 CLR
01:48 7.8 °C 5.2 °C 1026.6 hPa Calm     84 % 0.0 mm 0.0 W/m2 CLR
01:53 7.8 °C 5.4 °C 1026.6 hPa Calm     85 % 0.0 mm 0.0 W/m2 CLR
01:58 7.8 °C 5.6 °C 1026.6 hPa Calm     86 % 0.0 mm 0.0 W/m2 CLR
02:03 7.8 °C 5.6 °C 1026.6 hPa Calm     86 % 0.0 mm 0.0 W/m2 CLR
02:08 7.2 °C 5.2 °C 1026.6 hPa Calm     87 % 0.0 mm 0.0 W/m2 CLR
02:13 7.2 °C 5.2 °C 1026.6 hPa Calm     87 % 0.0 mm 0.0 W/m2 CLR
02:18 6.7 °C 4.7 °C 1026.6 hPa Calm     87 % 0.0 mm 0.0 W/m2 CLR
02:23 6.7 °C 4.5 °C 1026.6 hPa Calm     86 % 0.0 mm 0.0 W/m2 CLR
02:28 6.7 °C 4.7 °C 1026.6 hPa Calm     87 % 0.0 mm 0.0 W/m2 CLR
02:33 6.1 °C 4.1 °C 1026.6 hPa Calm     87 % 0.0 mm 0.0 W/m2 CLR
02:38 6.7 °C 4.7 °C 1026.6 hPa Calm     87 % 0.0 mm 0.0 W/m2 CLR
02:43 6.1 °C 4.1 °C 1026.6 hPa Calm     87 % 0.0 mm 0.0 W/m2 CLR
02:48 6.1 °C 4.1 °C 1026.3 hPa Calm     87 % 0.0 mm 0.0 W/m2 CLR
02:53 6.1 °C 4.3 °C 1026.3 hPa Calm     88 % 0.0 mm 0.0 W/m2 CLR
02:58 6.1 °C 4.1 °C 1026.3 hPa Calm     87 % 0.0 mm 0.0 W/m2 CLR
03:03 6.1 °C 4.1 °C 1026.3 hPa Calm     87 % 0.0 mm 0.0 W/m2 CLR
03:08 5.6 °C 3.6 °C 1026.3 hPa Calm     87 % 0.0 mm 0.0 W/m2 CLR
03:13 5.6 °C 3.7 °C 1026.3 hPa Calm     88 % 0.0 mm 0.0 W/m2 CLR
03:18 5.6 °C 3.6 °C 1026.3 hPa Calm     87 % 0.0 mm 0.0 W/m2 CLR
03:23 5.6 °C 3.6 °C 1026.3 hPa Calm     87 % 0.0 mm 0.0 W/m2 CLR
03:28 5.6 °C 3.6 °C 1026.3 hPa Calm     87 % 0.0 mm 0.0 W/m2 CLR
03:33 5.6 °C 3.6 °C 1026.0 hPa Calm     87 % 0.0 mm 0.0 W/m2 CLR
03:38 5.6 °C 3.6 °C 1026.0 hPa Calm     87 % 0.0 mm 0.0 W/m2 CLR
03:43 5.6 °C 3.6 °C 1026.0 hPa Calm     87 % 0.0 mm 0.0 W/m2 CLR
03:48 5.6 °C 3.6 °C 1026.0 hPa Calm     87 % 0.0 mm 0.0 W/m2 CLR
03:53 5.6 °C 3.6 °C 1026.0 hPa Calm     87 % 0.0 mm 0.0 W/m2 CLR
03:58 5.6 °C 3.6 °C 1026.0 hPa Calm     87 % 0.0 mm 0.0 W/m2 CLR
04:03 5.6 °C 3.6 °C 1026.0 hPa Calm     87 % 0.0 mm 0.0 W/m2 CLR
04:08 5.6 °C 3.7 °C 1026.0 hPa Calm     88 % 0.0 mm 0.0 W/m2 CLR
04:13 5.6 °C 3.7 °C 1026.0 hPa Calm     88 % 0.0 mm 0.0 W/m2 CLR
04:18 5.6 °C 3.7 °C 1025.6 hPa Calm     88 % 0.0 mm 0.0 W/m2 CLR
04:23 5.6 °C 3.9 °C 1025.6 hPa Calm     89 % 0.0 mm 0.0 W/m2 CLR
04:28 5.6 °C 3.7 °C 1025.6 hPa Calm     88 % 0.0 mm 0.0 W/m2 CLR
04:33 5.6 °C 3.7 °C 1025.6 hPa Calm     88 % 0.0 mm 0.0 W/m2 CLR
04:38 5.6 °C 3.7 °C 1025.6 hPa Calm     88 % 0.0 mm 0.0 W/m2 CLR
04:43 5.6 °C 3.9 °C 1025.6 hPa Calm     89 % 0.0 mm 0.0 W/m2 CLR
04:48 5.6 °C 3.9 °C 1025.6 hPa Calm     89 % 0.0 mm 0.0 W/m2 CLR
04:53 5.6 °C 3.9 °C 1025.3 hPa Calm     89 % 0.0 mm 0.0 W/m2 CLR
04:58 5.6 °C 3.9 °C 1025.3 hPa Calm     89 % 0.0 mm 0.0 W/m2 CLR
05:03 5.6 °C 4.1 °C 1025.3 hPa Calm     90 % 0.0 mm 0.0 W/m2 CLR
05:08 5.6 °C 3.9 °C 1025.3 hPa Calm     89 % 0.0 mm 0.0 W/m2 CLR
05:16 5.6 °C 3.9 °C 1025.3 hPa Calm     89 % 0.0 mm 0.0 W/m2 CLR
05:21 5.6 °C 4.1 °C 1025.3 hPa Calm     90 % 0.0 mm 0.0 W/m2 CLR
05:22 5.6 °C 3.9 °C 1025.3 hPa Calm     89 % 0.0 mm 0.0 W/m2 CLR
05:26 5.6 °C 3.9 °C 1025.3 hPa Calm     89 % 0.0 mm 0.0 W/m2 CLR
05:29 5.6 °C 4.1 °C 1025.3 hPa Calm     90 % 0.0 mm 0.0 W/m2 CLR
05:34 5.6 °C 4.1 °C 1025.3 hPa Calm     90 % 0.0 mm 0.0 W/m2 CLR
05:39 5.6 °C 4.1 °C 1025.3 hPa Calm     90 % 0.0 mm 0.0 W/m2 CLR
05:44 5.6 °C 4.1 °C 1025.3 hPa Calm     90 % 0.0 mm 0.0 W/m2 CLR
05:49 5.6 °C 4.1 °C 1025.3 hPa Calm     90 % 0.0 mm 0.0 W/m2 CLR
05:54 5.6 °C 4.1 °C 1025.3 hPa Calm     90 % 0.0 mm 0.0 W/m2 CLR
05:59 5.6 °C 4.1 °C 1025.3 hPa Calm     90 % 0.0 mm 0.0 W/m2 CLR
06:04 5.0 °C 3.5 °C 1025.3 hPa Calm     90 % 0.0 mm 0.0 W/m2 CLR
06:09 5.0 °C 3.7 °C 1025.3 hPa Calm     91 % 0.0 mm 0.0 W/m2 CLR
06:14 5.0 °C 3.5 °C 1025.3 hPa Calm     90 % 0.0 mm 0.0 W/m2 CLR
06:19 5.0 °C 3.5 °C 1025.3 hPa Calm     90 % 0.0 mm 0.0 W/m2 CLR
06:24 5.0 °C 3.5 °C 1025.3 hPa Calm     90 % 0.0 mm 0.0 W/m2 CLR
06:29 5.0 °C 3.5 °C 1025.3 hPa Calm     90 % 0.0 mm 0.0 W/m2 CLR
06:34 5.6 °C 4.1 °C 1025.3 hPa Calm     90 % 0.0 mm 0.0 W/m2 CLR
06:39 5.6 °C 4.1 °C 1025.3 hPa Calm     90 % 0.0 mm 0.0 W/m2 CLR
06:44 5.6 °C 4.1 °C 1025.3 hPa Calm     90 % 0.0 mm 0.0 W/m2 CLR
06:49 5.0 °C 3.5 °C 1025.3 hPa Calm     90 % 0.0 mm 0.0 W/m2 CLR
06:54 5.0 °C 3.5 °C 1025.3 hPa Calm     90 % 0.0 mm 0.0 W/m2 CLR
06:59 5.0 °C 3.5 °C 1025.3 hPa Calm     90 % 0.0 mm 0.0 W/m2 CLR
07:04 5.0 °C 3.5 °C 1025.3 hPa Calm     90 % 0.0 mm 0.0 W/m2 CLR
07:09 5.0 °C 3.5 °C 1025.3 hPa Calm     90 % 0.0 mm 0.0 W/m2 CLR
07:14 5.0 °C 3.5 °C 1025.3 hPa Calm     90 % 0.0 mm 0.0 W/m2 CLR
07:19 5.0 °C 3.5 °C 1025.3 hPa Calm     90 % 0.0 mm 0.0 W/m2 CLR
07:24 5.0 °C 3.7 °C 1025.3 hPa Calm     91 % 0.0 mm 0.0 W/m2 CLR
07:30 5.6 °C 4.2 °C 1024.9 hPa Calm     91 % 0.0 mm 0.0 W/m2 CLR
07:35 5.6 °C 4.1 °C 1025.3 hPa Calm     90 % 0.0 mm 0.0 W/m2 CLR
07:40 5.0 °C 3.5 °C 1025.3 hPa Calm     90 % 0.0 mm 0.0 W/m2 CLR
07:45 5.0 °C 3.5 °C 1025.3 hPa Calm     90 % 0.0 mm 0.0 W/m2 CLR
07:50 5.0 °C 3.5 °C 1025.3 hPa Calm     90 % 0.0 mm 0.0 W/m2 CLR
07:55 5.0 °C 3.7 °C 1024.9 hPa Calm     91 % 0.0 mm 0.0 W/m2 CLR
08:00 5.0 °C 3.7 °C 1025.3 hPa Calm     91 % 0.0 mm 0.0 W/m2 CLR
08:05 4.4 °C 3.1 °C 1025.3 hPa Calm     91 % 0.0 mm 0.0 W/m2 OVC
08:11 4.4 °C 3.1 °C 1025.3 hPa Calm     91 % 0.0 mm 0.0 W/m2 OVC
08:15 5.0 °C 3.7 °C 1025.3 hPa Calm     91 % 0.0 mm 5.0 W/m2 OVC
08:20 5.0 °C 3.7 °C 1025.3 hPa Calm     91 % 0.0 mm 9.0 W/m2 BKN
08:26 5.0 °C 3.7 °C 1025.3 hPa Calm     91 % 0.0 mm 11.0 W/m2 BKN
08:31 4.4 °C 3.1 °C 1025.3 hPa Calm     91 % 0.0 mm 14.0 W/m2 BKN
08:36 5.0 °C 3.7 °C 1025.3 hPa Calm     91 % 0.0 mm 16.0 W/m2 BKN
08:41 5.0 °C 3.7 °C 1025.3 hPa Calm     91 % 0.0 mm 21.0 W/m2 BKN
08:46 5.0 °C 3.7 °C 1025.6 hPa Calm     91 % 0.0 mm 26.0 W/m2 BKN
08:51 5.6 °C 4.2 °C 1025.6 hPa Calm     91 % 0.0 mm 35.0 W/m2 BKN
08:56 5.6 °C 4.1 °C 1025.6 hPa Calm     90 % 0.0 mm 44.0 W/m2 BKN
09:01 5.0 °C 3.7 °C 1025.6 hPa Calm     91 % 0.0 mm 62.0 W/m2 SCT
09:06 5.0 °C 3.5 °C 1025.6 hPa Calm     90 % 0.0 mm 74.0 W/m2 FEW
09:11 5.0 °C 3.5 °C 1025.6 hPa Calm     90 % 0.0 mm 84.0 W/m2 FEW
09:16 5.6 °C 4.1 °C 1025.6 hPa Calm     90 % 0.0 mm 100.0 W/m2 FEW
09:21 5.6 °C 3.9 °C 1025.6 hPa Calm     89 % 0.0 mm 102.0 W/m2 CLR
09:26 6.1 °C 4.3 °C 1025.6 hPa Calm     88 % 0.0 mm 134.0 W/m2 CLR
09:31 6.1 °C 4.1 °C 1025.6 hPa Calm     87 % 0.0 mm 149.0 W/m2 CLR
09:36 6.1 °C 4.1 °C 1025.6 hPa Calm     87 % 0.0 mm 127.0 W/m2 CLR
09:41 6.7 °C 4.5 °C 1025.6 hPa Calm     86 % 0.0 mm 183.0 W/m2 CLR
09:46 6.7 °C 4.5 °C 1025.6 hPa Calm     86 % 0.0 mm 202.0 W/m2 CLR
09:51 7.2 °C 4.9 °C 1025.6 hPa Calm     85 % 0.0 mm 220.0 W/m2 CLR
09:56 7.8 °C 5.1 °C 1025.6 hPa Calm     83 % 0.0 mm 237.0 W/m2 CLR
10:01 8.3 °C 5.4 °C 1026.0 hPa Calm     82 % 0.0 mm 257.0 W/m2 CLR
10:06 8.3 °C 5.3 °C 1025.6 hPa Calm     81 % 0.0 mm 274.0 W/m2 CLR
10:11 8.9 °C 5.6 °C 1025.6 hPa Calm     80 % 0.0 mm 287.0 W/m2 CLR
10:16 8.9 °C 5.1 °C 1025.6 hPa Calm     77 % 0.0 mm 302.0 W/m2 CLR
10:21 9.4 °C 5.2 °C 1025.6 hPa Calm     75 % 0.0 mm 318.0 W/m2 CLR
10:26 9.4 °C 5.1 °C 1025.6 hPa Calm     74 % 0.0 mm 332.0 W/m2 CLR
10:31 10.0 °C 5.6 °C 1025.6 hPa Calm     74 % 0.0 mm 346.0 W/m2 CLR
10:36 11.1 °C 6.4 °C 1025.6 hPa Calm     73 % 0.0 mm 359.0 W/m2 CLR
10:41 11.7 °C 7.0 °C 1025.6 hPa Calm     73 % 0.0 mm 373.0 W/m2 CLR
10:46 12.2 °C 7.1 °C 1025.6 hPa Calm     71 % 0.0 mm 387.0 W/m2 CLR
10:51 12.2 °C 6.7 °C 1025.3 hPa Calm     69 % 0.0 mm 397.0 W/m2 CLR
10:56 12.8 °C 7.4 °C 1025.3 hPa Calm     70 % 0.0 mm 410.0 W/m2 CLR
11:01 13.3 °C 7.8 °C 1025.3 hPa Calm     69 % 0.0 mm 422.0 W/m2 CLR
11:06 13.9 °C 8.1 °C 1025.3 hPa Calm     68 % 0.0 mm 438.0 W/m2 CLR
11:11 14.4 °C 8.4 °C 1025.3 hPa Calm     67 % 0.0 mm 448.0 W/m2 CLR
11:16 14.4 °C 8.4 °C 1024.9 hPa Calm     67 % 0.0 mm 455.0 W/m2 CLR
11:21 15.0 °C 8.7 °C 1024.9 hPa Calm     66 % 0.0 mm 469.0 W/m2 CLR
11:26 15.6 °C 8.6 °C 1024.9 hPa Calm     63 % 0.0 mm 476.0 W/m2 CLR
11:31 16.1 °C 8.8 °C 1024.9 hPa Calm     62 % 0.0 mm 489.0 W/m2 CLR
11:36 17.2 °C 9.6 °C 1024.6 hPa Calm     61 % 0.0 mm 499.0 W/m2 CLR
11:41 17.2 °C 9.6 °C 1024.6 hPa Calm     61 % 0.0 mm 508.0 W/m2 CLR
11:46 17.8 °C 10.2 °C 1024.6 hPa Calm     61 % 0.0 mm 517.0 W/m2 CLR
11:51 18.3 °C 10.2 °C 1024.6 hPa Calm     59 % 0.0 mm 529.0 W/m2 CLR
11:56 18.9 °C 10.7 °C 1024.6 hPa NNW 5.6 km/h 5.6 km/h 59 % 0.0 mm 538.0 W/m2 CLR
12:01 18.9 °C 10.7 °C 1024.6 hPa North 5.6 km/h 5.6 km/h 59 % 0.0 mm 545.0 W/m2 CLR
12:06 19.4 °C 11.2 °C 1024.3 hPa NNW 5.6 km/h   59 % 0.0 mm 554.0 W/m2 CLR
12:11 19.4 °C 11.2 °C 1024.3 hPa Calm     59 % 0.0 mm 563.0 W/m2 CLR
12:17 20.0 °C 11.5 °C 1024.3 hPa NNW 9.3 km/h 9.3 km/h 58 % 0.0 mm 568.0 W/m2 CLR
12:22 20.6 °C 12.3 °C 1024.3 hPa NNW 5.6 km/h 5.6 km/h 59 % 0.0 mm 575.0 W/m2 CLR
12:27 20.6 °C 12.0 °C 1023.9 hPa North 12.9 km/h 12.9 km/h 58 % 0.0 mm 582.0 W/m2 CLR
12:32 21.1 °C 12.5 °C 1023.9 hPa NW 7.4 km/h 7.4 km/h 58 % 0.0 mm 587.0 W/m2 CLR
12:37 21.1 °C 12.5 °C 1023.9 hPa WNW 9.7 km/h 9.7 km/h 58 % 0.0 mm 591.0 W/m2 CLR
12:42 21.1 °C 12.3 °C 1023.9 hPa NNW 5.6 km/h 5.6 km/h 57 % 0.0 mm 596.0 W/m2 CLR
12:47 21.7 °C 12.8 °C 1023.9 hPa NNW 14.8 km/h 14.8 km/h 57 % 0.0 mm 601.0 W/m2 CLR
12:52 21.7 °C 12.5 °C 1023.9 hPa Calm     56 % 0.0 mm 603.0 W/m2 CLR
12:57 22.2 °C 12.7 °C 1023.6 hPa NW 5.6 km/h 5.6 km/h 55 % 0.0 mm 610.0 W/m2 CLR
13:02 22.8 °C 13.3 °C 1023.6 hPa NNW 7.4 km/h   55 % 0.0 mm 610.0 W/m2 CLR
13:07 22.2 °C 12.4 °C 1023.6 hPa NW 13.0 km/h 13.0 km/h 54 % 0.0 mm 621.0 W/m2 CLR
13:12 22.2 °C 12.2 °C 1023.6 hPa NNW 16.7 km/h 16.7 km/h 53 % 0.0 mm 622.0 W/m2 CLR
13:17 22.8 °C 12.7 °C 1023.2 hPa NW 16.7 km/h 16.7 km/h 53 % 0.0 mm 624.0 W/m2 CLR
13:22 22.8 °C 12.4 °C 1023.2 hPa NNW 13.0 km/h 13.0 km/h 52 % 0.0 mm 624.0 W/m2 CLR
13:27 23.3 °C 12.9 °C 1023.2 hPa West 7.4 km/h 7.4 km/h 52 % 0.0 mm 626.0 W/m2 CLR
13:32 23.3 °C 12.3 °C 1022.9 hPa NNW 14.5 km/h 14.5 km/h 50 % 0.0 mm 628.0 W/m2 CLR
13:37 23.9 °C 12.8 °C 1022.9 hPa NNW 14.8 km/h 14.8 km/h 50 % 0.0 mm 626.0 W/m2 CLR
13:38 23.9 °C 12.8 °C 1022.9 hPa NW 16.7 km/h 16.7 km/h 50 % 0.0 mm 626.0 W/m2 CLR
13:43 23.9 °C 12.5 °C 1022.9 hPa NE 14.8 km/h 14.8 km/h 49 % 0.0 mm 629.0 W/m2 CLR
13:48 23.9 °C 12.5 °C 1022.9 hPa North 14.8 km/h 14.8 km/h 49 % 0.0 mm 628.0 W/m2 CLR
13:53 23.9 °C 12.5 °C 1022.6 hPa North 16.7 km/h 16.7 km/h 49 % 0.0 mm 629.0 W/m2 CLR
13:58 24.4 °C 13.1 °C 1022.6 hPa NE 6.4 km/h 6.9 km/h 49 % 0.0 mm 631.0 W/m2 CLR
14:03 24.4 °C 12.7 °C 1022.6 hPa North 14.8 km/h 14.8 km/h 48 % 0.0 mm 628.0 W/m2 CLR
14:08 24.4 °C 12.1 °C 1022.2 hPa NE 16.7 km/h 16.7 km/h 46 % 0.0 mm 629.0 W/m2 CLR
14:13 24.4 °C 12.4 °C 1022.2 hPa NNE 18.5 km/h 18.5 km/h 47 % 0.0 mm 628.0 W/m2 CLR
14:18 24.4 °C 12.4 °C 1022.2 hPa NNE 16.7 km/h 16.7 km/h 47 % 0.0 mm 622.0 W/m2 CLR
14:23 24.4 °C 12.7 °C 1021.9 hPa NNE 11.3 km/h 11.3 km/h 48 % 0.0 mm 615.0 W/m2 CLR
14:28 24.4 °C 12.7 °C 1021.9 hPa North 7.4 km/h 7.4 km/h 48 % 0.0 mm 608.0 W/m2 CLR
14:33 24.4 °C 12.4 °C 1021.9 hPa North 14.5 km/h 14.5 km/h 47 % 0.0 mm 606.0 W/m2 CLR
14:38 24.4 °C 12.4 °C 1021.6 hPa North 11.1 km/h 11.1 km/h 47 % 0.0 mm 601.0 W/m2 CLR
14:43 25.0 °C 12.9 °C 1021.6 hPa North 12.9 km/h 12.9 km/h 47 % 0.0 mm 598.0 W/m2 CLR
14:48 25.0 °C 12.2 °C 1021.2 hPa ENE 16.7 km/h 16.7 km/h 45 % 0.0 mm 592.0 W/m2 CLR
14:53 25.6 °C 12.7 °C 1021.2 hPa NE 18.5 km/h 18.5 km/h 45 % 0.0 mm 585.0 W/m2 CLR
14:58 25.6 °C 12.7 °C 1021.2 hPa ENE 18.5 km/h 18.5 km/h 45 % 0.0 mm 580.0 W/m2 CLR
15:03 25.6 °C 13.1 °C 1021.2 hPa NE 20.4 km/h 20.4 km/h 46 % 0.0 mm 578.0 W/m2 CLR
15:08 25.6 °C 13.1 °C 1020.9 hPa NNE 24.1 km/h 24.1 km/h 46 % 0.0 mm 571.0 W/m2 CLR
15:13 25.0 °C 12.9 °C 1020.9 hPa NNE 25.9 km/h 25.9 km/h 47 % 0.0 mm 552.0 W/m2 CLR
15:18 25.0 °C 12.9 °C 1020.9 hPa NNE 20.4 km/h 20.4 km/h 47 % 0.0 mm 519.0 W/m2 CLR
15:23 25.0 °C 13.2 °C 1020.5 hPa NNE 18.5 km/h 18.5 km/h 48 % 0.0 mm 504.0 W/m2 CLR
15:28 25.0 °C 13.2 °C 1020.5 hPa NE 24.1 km/h 24.1 km/h 48 % 0.0 mm 482.0 W/m2 CLR
15:33 25.0 °C 13.2 °C 1020.5 hPa NE 29.6 km/h 29.6 km/h 48 % 0.0 mm 506.0 W/m2 CLR
15:38 25.6 °C 13.7 °C 1020.5 hPa NE 20.9 km/h 20.9 km/h 48 % 0.0 mm 496.0 W/m2 CLR
15:43 25.0 °C 13.6 °C 1020.5 hPa NNE 20.4 km/h 20.4 km/h 49 % 0.0 mm 446.0 W/m2 CLR
15:48 25.0 °C 13.2 °C 1020.5 hPa NE 29.6 km/h 29.6 km/h 48 % 0.0 mm 436.0 W/m2 CLR
15:53 24.4 °C 13.3 °C 1020.5 hPa ENE 27.8 km/h 27.8 km/h 50 % 0.0 mm 438.0 W/m2 CLR
15:58 24.4 °C 13.7 °C 1020.5 hPa NE 24.1 km/h 24.1 km/h 51 % 0.0 mm 448.0 W/m2 CLR
16:03 24.4 °C 13.3 °C 1020.5 hPa NE 24.1 km/h 24.1 km/h 50 % 0.0 mm 448.0 W/m2 CLR
16:08 25.0 °C 14.2 °C 1020.2 hPa NE 25.9 km/h 25.9 km/h 51 % 0.0 mm 461.0 W/m2 CLR
16:13 25.0 °C 14.2 °C 1020.2 hPa ENE 31.5 km/h 31.5 km/h 51 % 0.0 mm 450.0 W/m2 CLR
16:18 25.0 °C 14.2 °C 1020.2 hPa NE 27.8 km/h 27.8 km/h 51 % 0.0 mm 439.0 W/m2 CLR
16:23 25.0 °C 14.4 °C 1020.2 hPa NE 27.8 km/h 27.8 km/h 52 % 0.0 mm 431.0 W/m2 CLR
16:28 24.4 °C 13.9 °C 1020.2 hPa NE 27.8 km/h 27.8 km/h 52 % 0.0 mm 420.0 W/m2 CLR
16:33 24.4 °C 14.2 °C 1020.2 hPa NE 31.5 km/h 31.5 km/h 53 % 0.0 mm 406.0 W/m2 CLR
16:38 24.4 °C 14.2 °C 1019.9 hPa ENE 29.6 km/h 29.6 km/h 53 % 0.0 mm 392.0 W/m2 CLR
16:43 24.4 °C 13.9 °C 1019.9 hPa ENE 33.3 km/h 33.3 km/h 52 % 0.0 mm 381.0 W/m2 CLR
16:48 24.4 °C 14.2 °C 1020.2 hPa East 25.9 km/h 25.9 km/h 53 % 0.0 mm 369.0 W/m2 CLR
16:53 24.4 °C 13.9 °C 1019.9 hPa ENE 31.5 km/h 31.5 km/h 52 % 0.0 mm 357.0 W/m2 CLR
16:58 24.4 °C 13.9 °C 1019.9 hPa NE 33.3 km/h 33.3 km/h 52 % 0.0 mm 336.0 W/m2 CLR
17:03 24.4 °C 14.6 °C 1020.2 hPa NE 20.4 km/h 23.3 km/h 54 % 0.0 mm 272.0 W/m2 CLR
17:08 23.9 °C 14.3 °C 1019.9 hPa East 22.5 km/h 22.5 km/h 55 % 0.0 mm 316.0 W/m2 CLR
17:13 23.9 °C 14.0 °C 1019.9 hPa NE 29.6 km/h 29.6 km/h 54 % 0.0 mm 297.0 W/m2 CLR
17:18 23.9 °C 14.3 °C 1019.9 hPa East 31.5 km/h 31.5 km/h 55 % 0.0 mm 276.0 W/m2 CLR
17:23 23.9 °C 14.3 °C 1019.9 hPa NE 18.5 km/h 18.5 km/h 55 % 0.0 mm 176.0 W/m2 CLR
17:28 23.3 °C 13.8 °C 1019.9 hPa ENE 25.9 km/h 25.9 km/h 55 % 0.0 mm 251.0 W/m2 CLR
17:33 23.3 °C 13.8 °C 1019.9 hPa ENE 25.9 km/h 25.9 km/h 55 % 0.0 mm 142.0 W/m2 CLR
17:38 22.8 °C 13.6 °C 1020.2 hPa ENE 18.5 km/h 18.5 km/h 56 % 0.0 mm 171.0 W/m2 CLR
17:43 22.8 °C 13.6 °C 1019.9 hPa NE 20.4 km/h 20.4 km/h 56 % 0.0 mm 130.0 W/m2 CLR
17:48 22.2 °C 13.0 °C 1019.9 hPa ENE 18.5 km/h 18.5 km/h 56 % 0.0 mm 83.0 W/m2 CLR
17:53 22.2 °C 13.3 °C 1020.2 hPa ENE 18.5 km/h 18.5 km/h 57 % 0.0 mm 84.0 W/m2 CLR
17:58 21.7 °C 12.8 °C 1020.2 hPa East 22.5 km/h 22.5 km/h 57 % 0.0 mm 81.0 W/m2 CLR
18:03 21.7 °C 12.8 °C 1020.2 hPa ENE 18.5 km/h 18.5 km/h 57 % 0.0 mm 40.0 W/m2 SCT
18:08 21.7 °C 13.1 °C 1020.2 hPa East 11.1 km/h 11.1 km/h 58 % 0.0 mm 39.0 W/m2 SCT
18:13 21.1 °C 12.3 °C 1020.2 hPa East 16.7 km/h 16.7 km/h 57 % 0.0 mm 40.0 W/m2 BKN
18:18 21.1 °C 12.3 °C 1020.2 hPa ENE 7.4 km/h 7.4 km/h 57 % 0.0 mm 42.0 W/m2 BKN
18:23 21.1 °C 12.0 °C 1020.2 hPa East 18.5 km/h 18.5 km/h 56 % 0.0 mm 37.0 W/m2 BKN
18:24 21.1 °C 12.0 °C 1020.2 hPa East 13.0 km/h 13.0 km/h 56 % 0.0 mm 32.0 W/m2 BKN
18:29 21.1 °C 12.0 °C 1020.2 hPa Calm     56 % 0.0 mm 25.0 W/m2 BKN
18:34 20.6 °C 11.4 °C 1020.2 hPa ESE 11.1 km/h 11.1 km/h 56 % 0.0 mm 21.0 W/m2 BKN
18:39 20.6 °C 11.7 °C 1020.5 hPa East 16.7 km/h 16.7 km/h 57 % 0.0 mm 19.0 W/m2 BKN
18:45 20.0 °C 11.2 °C 1020.5 hPa ESE 16.7 km/h 16.7 km/h 57 % 0.0 mm 14.0 W/m2 BKN
18:46 20.0 °C 11.2 °C 1020.2 hPa East 18.5 km/h 18.5 km/h 57 % 0.0 mm 14.0 W/m2 BKN
18:50 20.0 °C 11.5 °C 1020.2 hPa ENE 19.3 km/h 19.3 km/h 58 % 0.0 mm 9.0 W/m2 BKN
18:56 20.0 °C 11.5 °C 1020.2 hPa ESE 22.2 km/h 22.2 km/h 58 % 0.0 mm 5.0 W/m2 OVC
19:01 20.0 °C 11.5 °C 1020.2 hPa East 13.0 km/h 13.0 km/h 58 % 0.0 mm 0.0 W/m2 OVC
19:06 20.0 °C 11.7 °C 1020.5 hPa East 14.8 km/h 14.8 km/h 59 % 0.0 mm 0.0 W/m2 OVC
19:11 19.4 °C 11.2 °C 1020.5 hPa ESE 9.3 km/h 9.3 km/h 59 % 0.0 mm 0.0 W/m2 OVC
19:16 19.4 °C 11.2 °C 1020.5 hPa ENE 5.6 km/h 5.6 km/h 59 % 0.0 mm 0.0 W/m2 OVC
19:21 19.4 °C 11.2 °C 1020.5 hPa East 11.1 km/h 11.1 km/h 59 % 0.0 mm 0.0 W/m2 OVC
19:27 19.4 °C 11.5 °C 1020.5 hPa ENE 11.3 km/h 11.3 km/h 60 % 0.0 mm 0.0 W/m2 CLR
19:31 19.4 °C 11.9 °C 1020.5 hPa ENE 14.8 km/h 14.8 km/h 62 % 0.0 mm 0.0 W/m2 CLR
19:36 19.4 °C 12.2 °C 1020.5 hPa ENE 17.7 km/h 17.7 km/h 63 % 0.0 mm 0.0 W/m2 CLR
19:41 19.4 °C 12.7 °C 1020.2 hPa East 17.7 km/h 17.7 km/h 65 % 0.0 mm 0.0 W/m2 CLR
19:46 19.4 °C 12.9 °C 1020.2 hPa East 20.4 km/h 20.4 km/h 66 % 0.0 mm 0.0 W/m2 CLR
19:51 19.4 °C 13.2 °C 1020.2 hPa East 20.4 km/h 20.4 km/h 67 % 0.0 mm 0.0 W/m2 CLR
19:56 19.4 °C 13.2 °C 1020.2 hPa ENE 24.1 km/h 24.1 km/h 67 % 0.0 mm 0.0 W/m2 CLR
20:01 19.4 °C 13.2 °C 1020.2 hPa East 12.9 km/h 12.9 km/h 67 % 0.0 mm 0.0 W/m2 CLR
20:07 19.4 °C 13.2 °C 1020.2 hPa East 18.5 km/h 18.5 km/h 67 % 0.0 mm 0.0 W/m2 CLR
20:12 19.4 °C 13.2 °C 1020.2 hPa ENE 18.5 km/h 18.5 km/h 67 % 0.0 mm 0.0 W/m2 CLR
20:17 19.4 °C 13.2 °C 1020.2 hPa East 16.7 km/h 16.7 km/h 67 % 0.0 mm 0.0 W/m2 CLR
20:22 19.4 °C 13.4 °C 1020.2 hPa ENE 11.1 km/h 11.1 km/h 68 % 0.0 mm 0.0 W/m2 CLR
20:27 19.4 °C 13.4 °C 1020.2 hPa ENE 13.0 km/h 13.0 km/h 68 % 0.0 mm 0.0 W/m2 CLR
20:32 18.9 °C 12.8 °C 1019.9 hPa East 14.8 km/h 14.8 km/h 68 % 0.0 mm 0.0 W/m2 CLR
20:37 18.9 °C 13.1 °C 1019.9 hPa Calm     69 % 0.0 mm 0.0 W/m2 CLR
20:42 18.9 °C 13.1 °C 1019.9 hPa ENE 3.7 km/h   69 % 0.0 mm 0.0 W/m2 CLR
20:43 18.9 °C 13.1 °C 1019.9 hPa NE 5.6 km/h 5.6 km/h 69 % 0.0 mm 0.0 W/m2 CLR
20:48 18.3 °C 12.6 °C 1019.9 hPa ENE 5.6 km/h 5.6 km/h 69 % 0.0 mm 0.0 W/m2 CLR
20:53 18.3 °C 12.6 °C 1019.9 hPa East 5.6 km/h 5.6 km/h 69 % 0.0 mm 0.0 W/m2 CLR
20:54 18.3 °C 12.6 °C 1019.9 hPa East 5.6 km/h 5.6 km/h 69 % 0.0 mm 0.0 W/m2 CLR
20:59 17.8 °C 12.2 °C 1019.9 hPa Calm     70 % 0.0 mm 0.0 W/m2 CLR
21:04 17.8 °C 12.2 °C 1019.9 hPa ENE 9.7 km/h 9.7 km/h 70 % 0.0 mm 0.0 W/m2 CLR
21:09 17.2 °C 11.7 °C 1019.9 hPa NE 9.3 km/h 9.3 km/h 70 % 0.0 mm 0.0 W/m2 CLR
21:14 17.2 °C 11.9 °C 1019.9 hPa East 9.3 km/h 9.3 km/h 71 % 0.0 mm 0.0 W/m2 CLR
21:19 17.2 °C 11.9 °C 1019.9 hPa East 14.5 km/h 14.5 km/h 71 % 0.0 mm 0.0 W/m2 CLR
21:24 17.2 °C 11.9 °C 1019.9 hPa East 13.0 km/h 13.0 km/h 71 % 0.0 mm 0.0 W/m2 CLR
21:29 17.2 °C 12.1 °C 1019.9 hPa ENE 16.1 km/h 16.1 km/h 72 % 0.0 mm 0.0 W/m2 CLR
21:34 17.8 °C 12.7 °C 1019.9 hPa East 13.0 km/h 13.0 km/h 72 % 0.0 mm 0.0 W/m2 CLR
21:39 17.8 °C 12.7 °C 1019.9 hPa ENE 11.1 km/h 11.1 km/h 72 % 0.0 mm 0.0 W/m2 CLR
21:45 17.8 °C 12.7 °C 1019.9 hPa Calm   1.4 km/h 72 % 0.0 mm 0.0 W/m2 CLR
21:49 17.8 °C 12.9 °C 1019.9 hPa East 7.4 km/h 7.4 km/h 73 % 0.0 mm 0.0 W/m2 CLR
21:55 17.8 °C 12.9 °C 1019.9 hPa Calm     73 % 0.0 mm 0.0 W/m2 CLR
22:00 17.8 °C 12.9 °C 1019.9 hPa Calm     73 % 0.0 mm 0.0 W/m2 CLR
22:05 17.8 °C 12.9 °C 1019.9 hPa Calm     73 % 0.0 mm 0.0 W/m2 CLR
22:10 17.8 °C 12.9 °C 1019.9 hPa ENE 13.0 km/h 13.0 km/h 73 % 0.0 mm 0.0 W/m2 CLR
22:15 17.2 °C 12.3 °C 1020.2 hPa ENE 8.0 km/h 8.0 km/h 73 % 0.0 mm 0.0 W/m2 CLR
22:20 17.2 °C 12.3 °C 1020.2 hPa Calm     73 % 0.0 mm 0.0 W/m2 CLR
22:25 17.2 °C 12.3 °C 1020.2 hPa ENE 5.6 km/h   73 % 0.0 mm 0.0 W/m2 CLR
22:30 17.2 °C 12.3 °C 1020.2 hPa Calm     73 % 0.0 mm 0.0 W/m2 CLR
22:35 17.2 °C 12.6 °C 1020.2 hPa Calm     74 % 0.0 mm 0.0 W/m2 CLR
22:40 17.2 °C 12.3 °C 1020.2 hPa Calm     73 % 0.0 mm 0.0 W/m2 CLR
22:45 17.2 °C 12.6 °C 1020.2 hPa Calm     74 % 0.0 mm 0.0 W/m2 CLR
22:50 17.2 °C 12.6 °C 1020.5 hPa Calm     74 % 0.0 mm 0.0 W/m2 CLR
22:55 17.2 °C 12.6 °C 1020.5 hPa East 9.3 km/h 9.3 km/h 74 % 0.0 mm 0.0 W/m2 CLR
23:00 17.2 °C 12.6 °C 1020.9 hPa ESE 5.6 km/h 5.6 km/h 74 % 0.0 mm 0.0 W/m2 CLR
23:05 17.8 °C 13.3 °C 1021.2 hPa SSE 7.4 km/h 7.4 km/h 75 % 0.5 mm 0.0 W/m2 RA
23:10 17.2 °C 12.9 °C 1021.6 hPa Calm     76 % 0.5 mm 0.0 W/m2
23:15 17.2 °C 13.2 °C 1021.2 hPa Calm     77 % 0.5 mm 0.0 W/m2 CLR
23:20 17.2 °C 13.2 °C 1021.2 hPa Calm     77 % 0.5 mm 0.0 W/m2 CLR
23:25 16.7 °C 12.8 °C 1021.2 hPa Calm     78 % 0.5 mm 0.0 W/m2 CLR
23:30 16.7 °C 13.2 °C 1020.9 hPa Calm     80 % 0.5 mm 0.0 W/m2 CLR
23:35 16.7 °C 12.8 °C 1020.9 hPa Calm     78 % 0.5 mm 0.0 W/m2 CLR
23:40 16.1 °C 12.7 °C 1021.2 hPa Calm     80 % 0.5 mm 0.0 W/m2 CLR
23:45 16.1 °C 12.4 °C 1021.2 hPa Calm     79 % 0.5 mm 0.0 W/m2 CLR
23:46 16.1 °C 12.3 °C 1020.9 hPa Calm     78 % 0.5 mm 0.0 W/m2 CLR
23:51 16.1 °C 12.3 °C 1020.9 hPa Calm     78 % 0.5 mm 0.0 W/m2 CLR
23:56 16.1 °C 12.3 °C 1020.9 hPa Calm     78 % 0.5 mm 0.0 W/m2 CLR
Lo Temps de Massalio
Compliments of Weather Underground - 1.25 mb